Luke Air Force Base
KLUF : now visible

Airfield :











YOU CAN JOIN US ON...

 
LOGIN :

Register | Disclaimer

   EN    FR    IT 

 









Legend :    VFR   Marginal VFR   IFR   Intensive IFR   Very Intensive IFR
Visi :
Ceiling :
>= 8 km
>= 3000ft
5 to 8 km
1000 to 3000 ft
1500m to 5 km
500 to 1000 ft
800 to 1500m
200 to 500 ft
< 800m
< 200 ft
Symbols :   Thunderstorms  Fog  Heavy snow  Heavy precipitations  Wind > 20 kt






- Airport Elevation : 1085 ft


KLUF - Luke Air Force Base

CURRENT METAR :
  • 071455Z 04006KT 10SM CLR 24/12 A3008 RMK AO2A SLP175 T02360119 52016 $

EXPIRED METARs :
  • 071355Z AUTO 00000KT 10SM CLR 21/12 A3006 RMK AO2 SLP168 T02120123 $
  • 071255Z AUTO 01005KT 10SM CLR 22/12 A3005 RMK AO2 SLP164 T02200117 $

TAF TAF KLUF
Valid from the 07 at 12:00 until the 08 at 18:00 UTC


071200Z 0712/0818 VRB06KT 9999 FEW180 QNH3004INS
BECMG 0715/0716 09012G22KT 9999 FEW120 SCT150 QNH2994INS
BECMG 0722/0723 VRB06KT 9999 FEW100 SCT150 QNH2993INS
TEMPO 0801/0805 VRB15G25KT VCTS SCT100CB BKN150
BECMG 0815/0816 09012G22KT 9999 FEW120 SCT180 QNH3007INS TX33/0723Z TN21/0713Z
KZAB FIR / North America



MET'MAP, your aeronautical weather chart ! - Copyright ORBIFLY December 2007 - Disclaimer

ORBIFLY MET'MAP TEAM :

Programming & Development : Alexandra Zaïnal
Original concept : Baudouin d'Aumeries
Technical & hardware support : Manuel Goepfert
Assistance : Marc-Olivier Méhu




SOURCES & CREDITS :

   NOAA       Earth
Advisory